sensor_id;sensor_type;location;lat;lon;timestamp;temperature;humidity
14236;DHT22;7202;50.718;7.072;2022-07-12T00:00:33;15.30;99.90
14236;DHT22;7202;50.718;7.072;2022-07-12T00:03:01;15.30;99.90
14236;DHT22;7202;50.718;7.072;2022-07-12T00:05:30;15.30;99.90
14236;DHT22;7202;50.718;7.072;2022-07-12T00:07:59;15.20;99.90
14236;DHT22;7202;50.718;7.072;2022-07-12T00:10:28;15.20;99.90
14236;DHT22;7202;50.718;7.072;2022-07-12T00:12:56;15.20;99.90
14236;DHT22;7202;50.718;7.072;2022-07-12T00:15:26;15.20;99.90
14236;DHT22;7202;50.718;7.072;2022-07-12T00:17:55;15.20;99.90
14236;DHT22;7202;50.718;7.072;2022-07-12T00:20:23;15.20;99.90
14236;DHT22;7202;50.718;7.072;2022-07-12T00:22:52;15.20;99.90
14236;DHT22;7202;50.718;7.072;2022-07-12T00:25:21;15.10;99.90
14236;DHT22;7202;50.718;7.072;2022-07-12T00:27:50;15.00;99.90
14236;DHT22;7202;50.718;7.072;2022-07-12T00:30:19;15.00;99.90
14236;DHT22;7202;50.718;7.072;2022-07-12T00:32:49;15.00;99.90
14236;DHT22;7202;50.718;7.072;2022-07-12T00:35:18;14.90;99.90
14236;DHT22;7202;50.718;7.072;2022-07-12T00:37:46;14.90;99.90
14236;DHT22;7202;50.718;7.072;2022-07-12T00:40:15;14.80;99.90
14236;DHT22;7202;50.718;7.072;2022-07-12T00:42:44;14.80;99.90
14236;DHT22;7202;50.718;7.072;2022-07-12T00:45:12;14.70;99.90
14236;DHT22;7202;50.718;7.072;2022-07-12T00:47:42;14.70;99.90
14236;DHT22;7202;50.718;7.072;2022-07-12T00:50:14;14.60;99.90
14236;DHT22;7202;50.718;7.072;2022-07-12T00:52:44;14.60;99.90
14236;DHT22;7202;50.718;7.072;2022-07-12T00:55:14;14.60;99.90
14236;DHT22;7202;50.718;7.072;2022-07-12T00:57:43;14.60;99.90
14236;DHT22;7202;50.718;7.072;2022-07-12T01:00:13;14.50;99.90
14236;DHT22;7202;50.718;7.072;2022-07-12T01:02:43;14.50;99.90
14236;DHT22;7202;50.718;7.072;2022-07-12T01:05:15;14.40;99.90
14236;DHT22;7202;50.718;7.072;2022-07-12T01:07:44;14.40;99.90
14236;DHT22;7202;50.718;7.072;2022-07-12T01:10:13;14.40;99.90
14236;DHT22;7202;50.718;7.072;2022-07-12T01:12:41;14.40;99.90
14236;DHT22;7202;50.718;7.072;2022-07-12T01:15:10;14.30;99.90
14236;DHT22;7202;50.718;7.072;2022-07-12T01:17:39;14.30;99.90
14236;DHT22;7202;50.718;7.072;2022-07-12T01:20:09;14.30;99.90
14236;DHT22;7202;50.718;7.072;2022-07-12T01:22:41;14.30;99.90
14236;DHT22;7202;50.718;7.072;2022-07-12T01:25:12;14.20;99.90
14236;DHT22;7202;50.718;7.072;2022-07-12T01:27:41;14.20;99.90
14236;DHT22;7202;50.718;7.072;2022-07-12T01:30:10;14.20;99.90
14236;DHT22;7202;50.718;7.072;2022-07-12T01:32:39;14.20;99.90
14236;DHT22;7202;50.718;7.072;2022-07-12T01:35:08;14.20;99.90
14236;DHT22;7202;50.718;7.072;2022-07-12T01:37:38;14.20;99.90
14236;DHT22;7202;50.718;7.072;2022-07-12T01:40:09;14.10;99.90
14236;DHT22;7202;50.718;7.072;2022-07-12T01:42:39;14.10;99.90
14236;DHT22;7202;50.718;7.072;2022-07-12T01:45:09;14.10;99.90
14236;DHT22;7202;50.718;7.072;2022-07-12T01:47:37;14.00;99.90
14236;DHT22;7202;50.718;7.072;2022-07-12T01:50:08;14.00;99.90
14236;DHT22;7202;50.718;7.072;2022-07-12T01:52:47;14.00;99.90
14236;DHT22;7202;50.718;7.072;2022-07-12T01:55:16;14.00;99.90
14236;DHT22;7202;50.718;7.072;2022-07-12T01:57:47;13.90;99.90
14236;DHT22;7202;50.718;7.072;2022-07-12T02:00:15;13.90;99.90
14236;DHT22;7202;50.718;7.072;2022-07-12T02:02:45;13.90;99.90
14236;DHT22;7202;50.718;7.072;2022-07-12T02:05:15;13.80;99.90
14236;DHT22;7202;50.718;7.072;2022-07-12T02:07:43;13.80;99.90
14236;DHT22;7202;50.718;7.072;2022-07-12T02:10:12;13.80;99.90
14236;DHT22;7202;50.718;7.072;2022-07-12T02:12:41;13.70;99.90
14236;DHT22;7202;50.718;7.072;2022-07-12T02:15:11;13.70;99.90
14236;DHT22;7202;50.718;7.072;2022-07-12T02:17:40;13.70;99.90
14236;DHT22;7202;50.718;7.072;2022-07-12T02:20:10;13.70;99.90
14236;DHT22;7202;50.718;7.072;2022-07-12T02:22:39;13.60;99.90
14236;DHT22;7202;50.718;7.072;2022-07-12T02:25:08;13.50;99.90
14236;DHT22;7202;50.718;7.072;2022-07-12T02:27:38;13.50;99.90
14236;DHT22;7202;50.718;7.072;2022-07-12T02:30:08;13.50;99.90
14236;DHT22;7202;50.718;7.072;2022-07-12T02:32:38;13.50;99.90
14236;DHT22;7202;50.718;7.072;2022-07-12T02:35:07;13.50;99.90
14236;DHT22;7202;50.718;7.072;2022-07-12T02:37:36;13.50;99.90
14236;DHT22;7202;50.718;7.072;2022-07-12T02:40:06;13.50;99.90
14236;DHT22;7202;50.718;7.072;2022-07-12T02:42:52;13.40;99.90
14236;DHT22;7202;50.718;7.072;2022-07-12T02:45:22;13.40;99.90
14236;DHT22;7202;50.718;7.072;2022-07-12T02:47:52;13.40;99.90
14236;DHT22;7202;50.718;7.072;2022-07-12T02:50:20;13.40;99.90
14236;DHT22;7202;50.718;7.072;2022-07-12T02:52:49;13.40;99.90
14236;DHT22;7202;50.718;7.072;2022-07-12T02:55:18;13.40;99.90
14236;DHT22;7202;50.718;7.072;2022-07-12T02:57:46;13.40;99.90
14236;DHT22;7202;50.718;7.072;2022-07-12T03:00:16;13.40;99.90
14236;DHT22;7202;50.718;7.072;2022-07-12T03:02:44;13.40;99.90
14236;DHT22;7202;50.718;7.072;2022-07-12T03:05:14;13.30;99.90
14236;DHT22;7202;50.718;7.072;2022-07-12T03:07:43;13.30;99.90
14236;DHT22;7202;50.718;7.072;2022-07-12T03:10:12;13.30;99.90
14236;DHT22;7202;50.718;7.072;2022-07-12T03:12:40;13.20;99.90
14236;DHT22;7202;50.718;7.072;2022-07-12T03:15:09;13.20;99.90
14236;DHT22;7202;50.718;7.072;2022-07-12T03:17:38;13.10;99.90
14236;DHT22;7202;50.718;7.072;2022-07-12T03:20:08;13.10;99.90
14236;DHT22;7202;50.718;7.072;2022-07-12T03:22:40;13.10;99.90
14236;DHT22;7202;50.718;7.072;2022-07-12T03:25:09;13.10;99.90
14236;DHT22;7202;50.718;7.072;2022-07-12T03:27:38;13.10;99.90
14236;DHT22;7202;50.718;7.072;2022-07-12T03:30:11;13.10;99.90
14236;DHT22;7202;50.718;7.072;2022-07-12T03:32:40;13.10;99.90
14236;DHT22;7202;50.718;7.072;2022-07-12T03:35:09;13.10;99.90
14236;DHT22;7202;50.718;7.072;2022-07-12T03:37:47;13.10;99.90
14236;DHT22;7202;50.718;7.072;2022-07-12T03:40:17;13.00;99.90
14236;DHT22;7202;50.718;7.072;2022-07-12T03:42:47;13.00;99.90
14236;DHT22;7202;50.718;7.072;2022-07-12T03:45:17;13.00;99.90
14236;DHT22;7202;50.718;7.072;2022-07-12T03:47:48;13.00;99.90
14236;DHT22;7202;50.718;7.072;2022-07-12T03:50:16;13.00;99.90
14236;DHT22;7202;50.718;7.072;2022-07-12T03:52:47;13.00;99.90
14236;DHT22;7202;50.718;7.072;2022-07-12T03:55:16;13.00;99.90
14236;DHT22;7202;50.718;7.072;2022-07-12T03:57:45;13.00;99.90
14236;DHT22;7202;50.718;7.072;2022-07-12T04:00:14;12.90;99.90
14236;DHT22;7202;50.718;7.072;2022-07-12T04:02:43;12.90;99.90
14236;DHT22;7202;50.718;7.072;2022-07-12T04:05:12;12.90;99.90
14236;DHT22;7202;50.718;7.072;2022-07-12T04:07:40;12.90;99.90
14236;DHT22;7202;50.718;7.072;2022-07-12T04:10:10;12.90;99.90
14236;DHT22;7202;50.718;7.072;2022-07-12T04:12:39;12.90;99.90
14236;DHT22;7202;50.718;7.072;2022-07-12T04:15:08;12.90;99.90
14236;DHT22;7202;50.718;7.072;2022-07-12T04:17:37;12.90;99.90
14236;DHT22;7202;50.718;7.072;2022-07-12T04:20:07;12.90;99.90
14236;DHT22;7202;50.718;7.072;2022-07-12T04:22:37;13.00;99.90
14236;DHT22;7202;50.718;7.072;2022-07-12T04:25:07;13.00;99.90
14236;DHT22;7202;50.718;7.072;2022-07-12T04:27:38;13.10;99.90
14236;DHT22;7202;50.718;7.072;2022-07-12T04:30:07;13.40;99.90
14236;DHT22;7202;50.718;7.072;2022-07-12T04:32:36;13.90;99.90
14236;DHT22;7202;50.718;7.072;2022-07-12T04:35:06;14.30;99.90
14236;DHT22;7202;50.718;7.072;2022-07-12T04:37:34;14.60;99.90
14236;DHT22;7202;50.718;7.072;2022-07-12T04:40:04;14.60;99.90
14236;DHT22;7202;50.718;7.072;2022-07-12T04:42:32;14.60;99.90
14236;DHT22;7202;50.718;7.072;2022-07-12T04:45:03;14.40;99.90
14236;DHT22;7202;50.718;7.072;2022-07-12T04:47:34;14.40;99.90
14236;DHT22;7202;50.718;7.072;2022-07-12T04:50:04;14.40;99.90
14236;DHT22;7202;50.718;7.072;2022-07-12T04:52:33;14.40;99.90
14236;DHT22;7202;50.718;7.072;2022-07-12T04:55:03;14.50;99.90
14236;DHT22;7202;50.718;7.072;2022-07-12T04:57:31;14.60;99.90
14236;DHT22;7202;50.718;7.072;2022-07-12T05:00:03;14.60;99.90
14236;DHT22;7202;50.718;7.072;2022-07-12T05:02:32;14.60;99.90
14236;DHT22;7202;50.718;7.072;2022-07-12T05:05:01;14.60;99.90
14236;DHT22;7202;50.718;7.072;2022-07-12T05:07:30;14.50;99.90
14236;DHT22;7202;50.718;7.072;2022-07-12T05:09:59;14.50;99.90
14236;DHT22;7202;50.718;7.072;2022-07-12T05:12:27;14.60;99.90
14236;DHT22;7202;50.718;7.072;2022-07-12T05:14:56;14.70;99.90
14236;DHT22;7202;50.718;7.072;2022-07-12T05:17:26;14.80;99.90
14236;DHT22;7202;50.718;7.072;2022-07-12T05:19:54;14.80;99.90
14236;DHT22;7202;50.718;7.072;2022-07-12T05:22:23;14.80;99.90
14236;DHT22;7202;50.718;7.072;2022-07-12T05:24:52;14.90;99.90
14236;DHT22;7202;50.718;7.072;2022-07-12T05:27:20;15.00;99.90
14236;DHT22;7202;50.718;7.072;2022-07-12T05:29:49;15.10;99.90
14236;DHT22;7202;50.718;7.072;2022-07-12T05:32:18;15.20;99.90
14236;DHT22;7202;50.718;7.072;2022-07-12T05:34:48;15.30;99.90
14236;DHT22;7202;50.718;7.072;2022-07-12T05:37:16;15.40;99.90
14236;DHT22;7202;50.718;7.072;2022-07-12T05:39:45;15.50;99.90
14236;DHT22;7202;50.718;7.072;2022-07-12T05:42:13;15.50;99.90
14236;DHT22;7202;50.718;7.072;2022-07-12T05:44:42;15.70;99.90
14236;DHT22;7202;50.718;7.072;2022-07-12T05:47:11;15.80;99.90
14236;DHT22;7202;50.718;7.072;2022-07-12T05:49:39;15.90;99.90
14236;DHT22;7202;50.718;7.072;2022-07-12T05:52:10;16.10;99.90
14236;DHT22;7202;50.718;7.072;2022-07-12T05:54:56;16.30;99.90
14236;DHT22;7202;50.718;7.072;2022-07-12T05:57:24;16.50;99.90
14236;DHT22;7202;50.718;7.072;2022-07-12T05:59:53;16.60;99.90
14236;DHT22;7202;50.718;7.072;2022-07-12T06:02:21;16.80;99.90
14236;DHT22;7202;50.718;7.072;2022-07-12T06:04:50;17.00;99.90
14236;DHT22;7202;50.718;7.072;2022-07-12T06:07:20;17.10;99.90
14236;DHT22;7202;50.718;7.072;2022-07-12T06:09:49;17.30;99.90
14236;DHT22;7202;50.718;7.072;2022-07-12T06:12:17;17.40;99.90
14236;DHT22;7202;50.718;7.072;2022-07-12T06:14:46;17.60;99.90
14236;DHT22;7202;50.718;7.072;2022-07-12T06:17:15;17.70;99.90
14236;DHT22;7202;50.718;7.072;2022-07-12T06:19:48;17.80;99.90
14236;DHT22;7202;50.718;7.072;2022-07-12T06:22:17;18.00;99.90
14236;DHT22;7202;50.718;7.072;2022-07-12T06:24:47;18.10;99.90
14236;DHT22;7202;50.718;7.072;2022-07-12T06:27:16;18.20;99.90
14236;DHT22;7202;50.718;7.072;2022-07-12T06:29:45;18.30;99.90
14236;DHT22;7202;50.718;7.072;2022-07-12T06:32:16;18.50;99.90
14236;DHT22;7202;50.718;7.072;2022-07-12T06:34:45;18.60;99.90
14236;DHT22;7202;50.718;7.072;2022-07-12T06:37:14;18.70;99.90
14236;DHT22;7202;50.718;7.072;2022-07-12T06:39:42;18.80;99.90
14236;DHT22;7202;50.718;7.072;2022-07-12T06:42:15;18.90;99.90
14236;DHT22;7202;50.718;7.072;2022-07-12T06:44:53;19.00;99.90
14236;DHT22;7202;50.718;7.072;2022-07-12T06:47:22;19.00;99.90
14236;DHT22;7202;50.718;7.072;2022-07-12T06:49:50;19.10;99.90
14236;DHT22;7202;50.718;7.072;2022-07-12T06:52:19;19.20;99.90
14236;DHT22;7202;50.718;7.072;2022-07-12T06:54:54;19.30;99.90
14236;DHT22;7202;50.718;7.072;2022-07-12T06:57:24;19.30;99.90
14236;DHT22;7202;50.718;7.072;2022-07-12T06:59:54;19.50;99.90
14236;DHT22;7202;50.718;7.072;2022-07-12T07:02:23;19.50;99.90
14236;DHT22;7202;50.718;7.072;2022-07-12T07:04:51;19.50;99.90
14236;DHT22;7202;50.718;7.072;2022-07-12T07:07:20;19.60;99.90
14236;DHT22;7202;50.718;7.072;2022-07-12T07:09:49;19.70;99.90
14236;DHT22;7202;50.718;7.072;2022-07-12T07:12:17;19.80;99.90
14236;DHT22;7202;50.718;7.072;2022-07-12T07:14:47;19.80;99.90
14236;DHT22;7202;50.718;7.072;2022-07-12T07:17:16;19.90;99.90
14236;DHT22;7202;50.718;7.072;2022-07-12T07:19:46;20.00;99.90
14236;DHT22;7202;50.718;7.072;2022-07-12T07:22:15;20.00;99.90
14236;DHT22;7202;50.718;7.072;2022-07-12T07:24:44;20.10;99.90
14236;DHT22;7202;50.718;7.072;2022-07-12T07:27:13;20.10;99.90
14236;DHT22;7202;50.718;7.072;2022-07-12T07:29:42;20.20;99.90
14236;DHT22;7202;50.718;7.072;2022-07-12T07:32:29;20.30;99.90
14236;DHT22;7202;50.718;7.072;2022-07-12T07:34:58;20.40;99.90
14236;DHT22;7202;50.718;7.072;2022-07-12T07:37:26;20.40;99.90
14236;DHT22;7202;50.718;7.072;2022-07-12T07:39:55;20.50;99.90
14236;DHT22;7202;50.718;7.072;2022-07-12T07:42:23;20.50;99.90
14236;DHT22;7202;50.718;7.072;2022-07-12T07:44:52;20.50;99.90
14236;DHT22;7202;50.718;7.072;2022-07-12T07:47:47;20.60;99.90
14236;DHT22;7202;50.718;7.072;2022-07-12T07:50:36;20.60;99.90
14236;DHT22;7202;50.718;7.072;2022-07-12T07:53:05;20.70;99.90
14236;DHT22;7202;50.718;7.072;2022-07-12T07:55:34;20.80;99.90
14236;DHT22;7202;50.718;7.072;2022-07-12T07:58:03;20.70;99.90
14236;DHT22;7202;50.718;7.072;2022-07-12T08:00:31;20.80;99.90
14236;DHT22;7202;50.718;7.072;2022-07-12T08:03:01;20.80;99.90
14236;DHT22;7202;50.718;7.072;2022-07-12T08:05:30;20.80;99.90
14236;DHT22;7202;50.718;7.072;2022-07-12T08:07:59;20.80;99.90
14236;DHT22;7202;50.718;7.072;2022-07-12T08:10:27;20.90;99.90
14236;DHT22;7202;50.718;7.072;2022-07-12T08:12:56;21.00;99.90
14236;DHT22;7202;50.718;7.072;2022-07-12T08:15:25;21.00;99.90
14236;DHT22;7202;50.718;7.072;2022-07-12T08:17:53;21.10;99.90
14236;DHT22;7202;50.718;7.072;2022-07-12T08:20:24;21.20;99.90
14236;DHT22;7202;50.718;7.072;2022-07-12T08:23:13;21.20;99.90
14236;DHT22;7202;50.718;7.072;2022-07-12T08:25:42;21.30;99.90
14236;DHT22;7202;50.718;7.072;2022-07-12T08:28:10;21.30;99.90
14236;DHT22;7202;50.718;7.072;2022-07-12T08:30:39;21.30;99.90
14236;DHT22;7202;50.718;7.072;2022-07-12T08:33:14;21.40;99.90
14236;DHT22;7202;50.718;7.072;2022-07-12T08:35:44;21.50;99.90
14236;DHT22;7202;50.718;7.072;2022-07-12T08:38:13;21.50;99.90
14236;DHT22;7202;50.718;7.072;2022-07-12T08:40:43;21.60;99.90
14236;DHT22;7202;50.718;7.072;2022-07-12T08:43:12;21.70;99.90
14236;DHT22;7202;50.718;7.072;2022-07-12T08:45:40;21.70;99.90
14236;DHT22;7202;50.718;7.072;2022-07-12T08:48:09;21.80;99.90
14236;DHT22;7202;50.718;7.072;2022-07-12T08:50:38;21.90;99.90
14236;DHT22;7202;50.718;7.072;2022-07-12T08:53:13;21.90;99.90
14236;DHT22;7202;50.718;7.072;2022-07-12T08:55:41;22.00;99.90
14236;DHT22;7202;50.718;7.072;2022-07-12T08:58:16;22.10;99.90
14236;DHT22;7202;50.718;7.072;2022-07-12T09:00:46;22.20;99.90
14236;DHT22;7202;50.718;7.072;2022-07-12T09:03:18;22.30;99.90
14236;DHT22;7202;50.718;7.072;2022-07-12T09:05:49;22.30;99.90
14236;DHT22;7202;50.718;7.072;2022-07-12T09:08:27;22.30;99.90
14236;DHT22;7202;50.718;7.072;2022-07-12T09:10:57;22.30;99.90
14236;DHT22;7202;50.718;7.072;2022-07-12T09:13:47;22.30;99.90
14236;DHT22;7202;50.718;7.072;2022-07-12T09:16:18;22.40;99.90
14236;DHT22;7202;50.718;7.072;2022-07-12T09:18:48;22.40;99.90
14236;DHT22;7202;50.718;7.072;2022-07-12T09:21:27;22.40;99.90
14236;DHT22;7202;50.718;7.072;2022-07-12T09:23:58;22.50;99.90
14236;DHT22;7202;50.718;7.072;2022-07-12T09:26:30;22.50;99.90
14236;DHT22;7202;50.718;7.072;2022-07-12T09:29:06;22.60;99.90
14236;DHT22;7202;50.718;7.072;2022-07-12T09:31:42;22.60;99.90
14236;DHT22;7202;50.718;7.072;2022-07-12T09:34:25;22.70;99.90
14236;DHT22;7202;50.718;7.072;2022-07-12T09:37:11;22.70;99.90
14236;DHT22;7202;50.718;7.072;2022-07-12T09:39:42;22.80;99.90
14236;DHT22;7202;50.718;7.072;2022-07-12T09:42:11;22.90;99.90
14236;DHT22;7202;50.718;7.072;2022-07-12T09:44:41;22.90;99.90
14236;DHT22;7202;50.718;7.072;2022-07-12T09:47:11;22.90;99.90
14236;DHT22;7202;50.718;7.072;2022-07-12T09:49:41;23.00;99.90
14236;DHT22;7202;50.718;7.072;2022-07-12T09:52:14;23.10;99.90
14236;DHT22;7202;50.718;7.072;2022-07-12T09:54:46;23.20;99.90
14236;DHT22;7202;50.718;7.072;2022-07-12T09:57:20;23.30;99.90
14236;DHT22;7202;50.718;7.072;2022-07-12T09:59:50;23.40;99.90
14236;DHT22;7202;50.718;7.072;2022-07-12T10:02:21;23.40;99.90
14236;DHT22;7202;50.718;7.072;2022-07-12T10:04:51;23.40;99.90
14236;DHT22;7202;50.718;7.072;2022-07-12T10:07:20;23.50;99.90
14236;DHT22;7202;50.718;7.072;2022-07-12T10:09:52;23.50;99.90
14236;DHT22;7202;50.718;7.072;2022-07-12T10:12:22;23.60;99.90
14236;DHT22;7202;50.718;7.072;2022-07-12T10:14:55;23.60;99.90
14236;DHT22;7202;50.718;7.072;2022-07-12T10:17:26;23.70;99.90
14236;DHT22;7202;50.718;7.072;2022-07-12T10:20:15;23.80;99.90
14236;DHT22;7202;50.718;7.072;2022-07-12T10:22:44;23.80;99.90
14236;DHT22;7202;50.718;7.072;2022-07-12T10:25:35;23.90;99.90
14236;DHT22;7202;50.718;7.072;2022-07-12T10:28:04;24.00;99.90
14236;DHT22;7202;50.718;7.072;2022-07-12T10:30:42;24.00;99.90
14236;DHT22;7202;50.718;7.072;2022-07-12T10:33:18;24.10;99.90
14236;DHT22;7202;50.718;7.072;2022-07-12T10:36:00;24.20;99.90
14236;DHT22;7202;50.718;7.072;2022-07-12T10:38:30;24.20;99.90
14236;DHT22;7202;50.718;7.072;2022-07-12T10:41:17;24.30;99.90
14236;DHT22;7202;50.718;7.072;2022-07-12T10:44:02;24.30;99.90
14236;DHT22;7202;50.718;7.072;2022-07-12T10:46:34;24.40;99.90
14236;DHT22;7202;50.718;7.072;2022-07-12T10:49:24;24.40;99.90
14236;DHT22;7202;50.718;7.072;2022-07-12T10:52:13;24.50;99.90
14236;DHT22;7202;50.718;7.072;2022-07-12T10:54:46;24.60;99.90
14236;DHT22;7202;50.718;7.072;2022-07-12T10:57:38;24.60;99.90
14236;DHT22;7202;50.718;7.072;2022-07-12T11:00:09;24.60;99.90
14236;DHT22;7202;50.718;7.072;2022-07-12T11:02:38;24.60;99.90
14236;DHT22;7202;50.718;7.072;2022-07-12T11:05:07;24.70;99.90
14236;DHT22;7202;50.718;7.072;2022-07-12T11:07:36;24.70;99.90
14236;DHT22;7202;50.718;7.072;2022-07-12T11:10:06;24.80;99.90
14236;DHT22;7202;50.718;7.072;2022-07-12T11:12:36;24.80;99.90
14236;DHT22;7202;50.718;7.072;2022-07-12T11:15:05;24.90;99.90
14236;DHT22;7202;50.718;7.072;2022-07-12T11:17:34;25.00;99.90
14236;DHT22;7202;50.718;7.072;2022-07-12T11:20:08;25.20;99.90
14236;DHT22;7202;50.718;7.072;2022-07-12T11:22:39;25.30;99.90
14236;DHT22;7202;50.718;7.072;2022-07-12T11:25:09;25.30;99.90
14236;DHT22;7202;50.718;7.072;2022-07-12T11:27:40;25.40;99.90
14236;DHT22;7202;50.718;7.072;2022-07-12T11:30:09;25.40;99.90
14236;DHT22;7202;50.718;7.072;2022-07-12T11:32:39;25.50;99.90
14236;DHT22;7202;50.718;7.072;2022-07-12T11:35:18;25.50;99.90
14236;DHT22;7202;50.718;7.072;2022-07-12T11:37:48;25.50;99.90
14236;DHT22;7202;50.718;7.072;2022-07-12T11:40:22;25.60;99.90
14236;DHT22;7202;50.718;7.072;2022-07-12T11:42:56;25.70;99.90
14236;DHT22;7202;50.718;7.072;2022-07-12T11:45:27;25.80;99.90
14236;DHT22;7202;50.718;7.072;2022-07-12T11:47:58;25.90;99.90
14236;DHT22;7202;50.718;7.072;2022-07-12T11:50:27;26.00;99.90
14236;DHT22;7202;50.718;7.072;2022-07-12T11:53:02;26.10;99.90
14236;DHT22;7202;50.718;7.072;2022-07-12T11:55:31;26.20;99.90
14236;DHT22;7202;50.718;7.072;2022-07-12T11:58:05;26.20;99.90
14236;DHT22;7202;50.718;7.072;2022-07-12T12:00:34;26.20;99.90
14236;DHT22;7202;50.718;7.072;2022-07-12T12:03:03;26.30;99.90
14236;DHT22;7202;50.718;7.072;2022-07-12T12:05:33;26.40;99.90
14236;DHT22;7202;50.718;7.072;2022-07-12T12:08:01;26.50;99.90
14236;DHT22;7202;50.718;7.072;2022-07-12T12:10:30;26.60;99.90
14236;DHT22;7202;50.718;7.072;2022-07-12T12:13:00;26.60;99.90
14236;DHT22;7202;50.718;7.072;2022-07-12T12:15:31;26.60;99.90
14236;DHT22;7202;50.718;7.072;2022-07-12T12:18:02;26.70;99.90
14236;DHT22;7202;50.718;7.072;2022-07-12T12:20:33;26.80;99.90
14236;DHT22;7202;50.718;7.072;2022-07-12T12:23:03;26.80;99.90
14236;DHT22;7202;50.718;7.072;2022-07-12T12:25:33;26.90;99.90
14236;DHT22;7202;50.718;7.072;2022-07-12T12:28:03;27.00;99.90
14236;DHT22;7202;50.718;7.072;2022-07-12T12:30:50;27.10;99.90
14236;DHT22;7202;50.718;7.072;2022-07-12T12:33:36;27.20;99.90
14236;DHT22;7202;50.718;7.072;2022-07-12T12:36:13;27.40;99.90
14236;DHT22;7202;50.718;7.072;2022-07-12T12:38:41;27.40;99.90
14236;DHT22;7202;50.718;7.072;2022-07-12T12:41:11;27.50;99.90
14236;DHT22;7202;50.718;7.072;2022-07-12T12:43:40;27.60;99.90
14236;DHT22;7202;50.718;7.072;2022-07-12T12:46:11;27.60;99.90
14236;DHT22;7202;50.718;7.072;2022-07-12T12:48:47;27.50;99.90
14236;DHT22;7202;50.718;7.072;2022-07-12T12:51:15;27.50;99.90
14236;DHT22;7202;50.718;7.072;2022-07-12T12:53:54;27.40;99.90
14236;DHT22;7202;50.718;7.072;2022-07-12T12:56:23;27.30;99.90
14236;DHT22;7202;50.718;7.072;2022-07-12T12:58:52;27.30;99.90
14236;DHT22;7202;50.718;7.072;2022-07-12T13:01:23;27.30;99.90
14236;DHT22;7202;50.718;7.072;2022-07-12T13:03:52;27.40;99.90
14236;DHT22;7202;50.718;7.072;2022-07-12T13:06:21;27.40;99.90
14236;DHT22;7202;50.718;7.072;2022-07-12T13:08:50;27.50;99.90
14236;DHT22;7202;50.718;7.072;2022-07-12T13:11:18;27.60;99.90
14236;DHT22;7202;50.718;7.072;2022-07-12T13:13:49;27.70;99.90
14236;DHT22;7202;50.718;7.072;2022-07-12T13:16:18;27.80;99.90
14236;DHT22;7202;50.718;7.072;2022-07-12T13:18:48;27.90;99.80
14236;DHT22;7202;50.718;7.072;2022-07-12T13:21:17;28.00;99.90
14236;DHT22;7202;50.718;7.072;2022-07-12T13:23:46;28.10;99.90
14236;DHT22;7202;50.718;7.072;2022-07-12T13:26:14;28.10;99.70
14236;DHT22;7202;50.718;7.072;2022-07-12T13:28:43;28.10;98.80
14236;DHT22;7202;50.718;7.072;2022-07-12T13:31:11;28.10;99.30
14236;DHT22;7202;50.718;7.072;2022-07-12T13:33:40;28.20;97.20
14236;DHT22;7202;50.718;7.072;2022-07-12T13:36:11;28.20;96.90
14236;DHT22;7202;50.718;7.072;2022-07-12T13:38:40;28.30;97.90
14236;DHT22;7202;50.718;7.072;2022-07-12T13:41:08;28.30;98.10
14236;DHT22;7202;50.718;7.072;2022-07-12T13:43:37;28.30;98.90
14236;DHT22;7202;50.718;7.072;2022-07-12T13:46:05;28.30;96.60
14236;DHT22;7202;50.718;7.072;2022-07-12T13:48:34;28.30;97.00
14236;DHT22;7202;50.718;7.072;2022-07-12T13:51:03;28.20;97.20
14236;DHT22;7202;50.718;7.072;2022-07-12T13:53:53;28.20;95.60
14236;DHT22;7202;50.718;7.072;2022-07-12T13:56:21;28.20;96.40
14236;DHT22;7202;50.718;7.072;2022-07-12T13:58:50;28.30;96.90
14236;DHT22;7202;50.718;7.072;2022-07-12T14:01:19;28.40;95.80
14236;DHT22;7202;50.718;7.072;2022-07-12T14:03:47;28.40;96.30
14236;DHT22;7202;50.718;7.072;2022-07-12T14:06:16;28.50;94.20
14236;DHT22;7202;50.718;7.072;2022-07-12T14:08:45;28.60;93.40
14236;DHT22;7202;50.718;7.072;2022-07-12T14:11:21;28.60;94.30
14236;DHT22;7202;50.718;7.072;2022-07-12T14:13:50;28.60;94.60
14236;DHT22;7202;50.718;7.072;2022-07-12T14:16:18;28.60;94.90
14236;DHT22;7202;50.718;7.072;2022-07-12T14:18:48;28.60;96.20
14236;DHT22;7202;50.718;7.072;2022-07-12T14:21:17;28.70;96.20
14236;DHT22;7202;50.718;7.072;2022-07-12T14:23:45;28.70;96.00
14236;DHT22;7202;50.718;7.072;2022-07-12T14:26:14;28.70;96.10
14236;DHT22;7202;50.718;7.072;2022-07-12T14:28:44;28.70;95.70
14236;DHT22;7202;50.718;7.072;2022-07-12T14:31:12;28.70;94.60
14236;DHT22;7202;50.718;7.072;2022-07-12T14:33:41;28.60;94.40
14236;DHT22;7202;50.718;7.072;2022-07-12T14:36:10;28.60;93.50
14236;DHT22;7202;50.718;7.072;2022-07-12T14:38:39;28.60;93.10
14236;DHT22;7202;50.718;7.072;2022-07-12T14:41:07;28.50;93.90
14236;DHT22;7202;50.718;7.072;2022-07-12T14:43:37;28.40;95.30
14236;DHT22;7202;50.718;7.072;2022-07-12T14:46:07;28.40;96.30
14236;DHT22;7202;50.718;7.072;2022-07-12T14:48:36;28.40;96.10
14236;DHT22;7202;50.718;7.072;2022-07-12T14:51:04;28.40;95.10
14236;DHT22;7202;50.718;7.072;2022-07-12T14:53:33;28.40;95.40
14236;DHT22;7202;50.718;7.072;2022-07-12T14:56:01;28.40;94.70
14236;DHT22;7202;50.718;7.072;2022-07-12T14:58:30;28.40;94.80
14236;DHT22;7202;50.718;7.072;2022-07-12T15:00:59;28.50;94.50
14236;DHT22;7202;50.718;7.072;2022-07-12T15:03:29;28.50;93.90
14236;DHT22;7202;50.718;7.072;2022-07-12T15:05:58;28.50;93.70
14236;DHT22;7202;50.718;7.072;2022-07-12T15:08:26;28.50;94.70
14236;DHT22;7202;50.718;7.072;2022-07-12T15:10:55;28.40;94.60
14236;DHT22;7202;50.718;7.072;2022-07-12T15:13:24;28.30;94.60
14236;DHT22;7202;50.718;7.072;2022-07-12T15:15:53;28.30;94.40
14236;DHT22;7202;50.718;7.072;2022-07-12T15:18:21;28.30;94.20
14236;DHT22;7202;50.718;7.072;2022-07-12T15:20:52;28.30;93.80
14236;DHT22;7202;50.718;7.072;2022-07-12T15:23:21;28.30;93.70
14236;DHT22;7202;50.718;7.072;2022-07-12T15:25:49;28.20;94.10
14236;DHT22;7202;50.718;7.072;2022-07-12T15:28:20;28.20;94.60
14236;DHT22;7202;50.718;7.072;2022-07-12T15:30:49;28.20;93.90
14236;DHT22;7202;50.718;7.072;2022-07-12T15:33:18;28.20;94.30
14236;DHT22;7202;50.718;7.072;2022-07-12T15:35:46;28.10;94.10
14236;DHT22;7202;50.718;7.072;2022-07-12T15:38:17;28.10;95.10
14236;DHT22;7202;50.718;7.072;2022-07-12T15:40:45;28.10;95.40
14236;DHT22;7202;50.718;7.072;2022-07-12T15:43:14;28.10;95.10
14236;DHT22;7202;50.718;7.072;2022-07-12T15:45:43;28.10;95.10
14236;DHT22;7202;50.718;7.072;2022-07-12T15:48:11;28.10;93.80
14236;DHT22;7202;50.718;7.072;2022-07-12T15:50:40;28.10;93.70
14236;DHT22;7202;50.718;7.072;2022-07-12T15:53:08;28.00;94.20
14236;DHT22;7202;50.718;7.072;2022-07-12T15:55:58;28.00;94.60
14236;DHT22;7202;50.718;7.072;2022-07-12T15:58:28;28.00;95.10
14236;DHT22;7202;50.718;7.072;2022-07-12T16:00:58;28.00;94.00
14236;DHT22;7202;50.718;7.072;2022-07-12T16:03:27;27.90;93.50
14236;DHT22;7202;50.718;7.072;2022-07-12T16:05:57;28.00;92.80